Time;durP1;ratioP1;P1;durP2;ratioP2;P2;SDS_P1;SDS_P2;PMS_P1;PMS_P2;Temp;Humidity;BMP_temperature;BMP_pressure;BME280_temperature;BME280_humidity;BME280_pressure;Samples;Min_cycle;Max_cycle;Signal;HPM_P1;HPM_P2
2023/06/26 00:00:31;;;;;;;19.83;17.85;;;;;;;22.22;84.21;94832.41;5146516;27;20204;-71
2023/06/26 00:02:58;;;;;;;18.63;16.23;;;;;;;22.22;83.89;94822.88;5144586;27;20315;-71
2023/06/26 00:05:25;;;;;;;18.63;16.83;;;;;;;22.25;83.71;94824.41;5144335;27;20223;-70
2023/06/26 00:07:53;;;;;;;17.67;15.98;;;;;;;22.15;84.27;94824.31;5146034;27;20238;-71
2023/06/26 00:10:19;;;;;;;24.02;20.88;;;;;;;22.14;83.93;94830.44;5143645;27;20252;-70
2023/06/26 00:12:46;;;;;;;17.02;15.23;;;;;;;22.12;83.84;94824.56;5143553;27;20673;-68
2023/06/26 00:15:13;;;;;;;17.10;15.27;;;;;;;22.09;84.15;94822.22;5146891;27;20207;-69
2023/06/26 00:17:40;;;;;;;17.02;15.32;;;;;;;21.92;84.97;94822.78;5146561;27;20199;-69
2023/06/26 00:20:07;;;;;;;18.05;16.02;;;;;;;21.78;85.59;94820.50;5147070;27;20677;-69
2023/06/26 00:22:34;;;;;;;17.10;15.27;;;;;;;21.73;85.88;94828.63;5145870;27;20195;-68
2023/06/26 00:25:03;;;;;;;17.00;15.25;;;;;;;21.71;85.99;94818.41;5143361;27;20526;-68
2023/06/26 00:27:29;;;;;;;17.55;13.63;;;;;;;21.80;85.53;94818.59;5144699;27;20208;-69
2023/06/26 00:29:56;;;;;;;18.27;14.50;;;;;;;21.78;85.84;94810.16;5144254;27;20219;-70
2023/06/26 00:32:22;;;;;;;15.55;13.93;;;;;;;21.57;86.72;94813.53;5146280;27;20195;-68
2023/06/26 00:34:49;;;;;;;19.30;14.30;;;;;;;21.46;87.50;94821.34;5145543;27;20240;-71
2023/06/26 00:37:16;;;;;;;19.50;17.67;;;;;;;21.59;87.30;94816.81;5145402;27;20276;-70
2023/06/26 00:39:43;;;;;;;17.27;15.63;;;;;;;21.73;86.29;94806.19;5147158;27;20192;-71
2023/06/26 00:42:11;;;;;;;15.90;14.38;;;;;;;21.78;86.45;94817.94;5145627;27;20204;-71
2023/06/26 00:44:37;;;;;;;15.52;13.95;;;;;;;21.86;85.94;94810.34;5142043;27;20224;-71
2023/06/26 00:47:05;;;;;;;15.05;12.00;;;;;;;21.80;85.91;94813.41;5142629;27;20211;-70
2023/06/26 00:49:31;;;;;;;15.02;13.45;;;;;;;21.67;86.37;94817.03;5144105;27;20320;-71
2023/06/26 00:51:58;;;;;;;14.15;12.90;;;;;;;21.75;86.14;94810.41;5143737;27;20220;-70
2023/06/26 00:54:25;;;;;;;14.25;13.00;;;;;;;21.70;86.30;94813.38;5139971;27;20291;-71
2023/06/26 00:56:52;;;;;;;14.73;13.05;;;;;;;21.68;86.27;94805.72;5143510;27;20212;-70
2023/06/26 00:59:20;;;;;;;15.43;13.27;;;;;;;21.77;85.91;94803.34;5140438;27;20192;-71
2023/06/26 01:01:48;;;;;;;13.07;11.85;;;;;;;21.85;85.33;94800.94;5144215;27;20808;-70
2023/06/26 01:04:18;;;;;;;13.35;12.25;;;;;;;21.81;85.20;94800.38;5143910;27;20843;-72
2023/06/26 01:06:48;;;;;;;13.88;12.40;;;;;;;21.84;85.04;94794.13;5142710;27;20929;-72
2023/06/26 01:09:17;;;;;;;12.52;11.55;;;;;;;21.67;85.94;94787.75;5143470;27;20223;-71
2023/06/26 01:11:44;;;;;;;13.63;12.32;;;;;;;21.66;85.76;94797.28;5144571;27;20200;-71
2023/06/26 01:14:10;;;;;;;13.02;11.93;;;;;;;21.65;86.00;94789.63;5143174;27;20199;-72
2023/06/26 01:16:39;;;;;;;12.02;11.13;;;;;;;21.61;86.21;94783.06;5143460;27;20275;-72
2023/06/26 01:19:11;;;;;;;11.65;10.55;;;;;;;21.76;85.31;94775.84;5145096;27;20215;-72
2023/06/26 01:21:43;;;;;;;12.35;11.30;;;;;;;21.67;85.64;94783.41;5144486;27;20227;-71
2023/06/26 01:24:20;;;;;;;12.85;11.75;;;;;;;21.52;86.17;94779.47;5143807;27;20191;-72
2023/06/26 01:26:50;;;;;;;13.73;12.43;;;;;;;21.33;87.11;94779.31;5145945;27;20708;-72
2023/06/26 01:29:19;;;;;;;13.00;11.70;;;;;;;21.22;87.52;94777.59;5142653;27;20236;-70
2023/06/26 01:31:48;;;;;;;12.60;11.60;;;;;;;21.06;88.96;94777.13;5147560;27;20256;-72
2023/06/26 01:34:16;;;;;;;12.82;11.68;;;;;;;21.21;88.14;94769.97;5142869;27;20203;-71
2023/06/26 01:36:43;;;;;;;12.48;11.43;;;;;;;21.22;88.35;94766.44;5146265;27;20279;-71
2023/06/26 01:39:10;;;;;;;12.50;11.38;;;;;;;21.20;88.32;94769.16;5142578;27;20710;-70
2023/06/26 01:41:37;;;;;;;12.13;11.23;;;;;;;21.34;87.24;94761.09;5146649;27;20203;-72
2023/06/26 01:44:17;;;;;;;13.07;12.02;;;;;;;21.27;87.44;94766.91;5141332;27;20779;-71
2023/06/26 01:46:55;;;;;;;12.52;11.18;;;;;;;21.32;87.15;94770.72;5146629;27;20260;-68
2023/06/26 01:49:30;;;;;;;12.50;11.48;;;;;;;21.37;86.64;94771.19;5143960;27;20215;-70
2023/06/26 01:52:10;;;;;;;13.25;11.93;;;;;;;21.31;86.69;94765.69;5144038;27;20774;-71
2023/06/26 01:54:43;;;;;;;13.68;12.50;;;;;;;21.29;87.22;94764.97;5142592;27;20191;-70
2023/06/26 01:57:11;;;;;;;13.75;12.35;;;;;;;21.13;87.55;94756.78;5146264;27;20206;-72
2023/06/26 01:59:42;;;;;;;13.15;11.88;;;;;;;21.13;87.78;94759.38;5142886;27;20240;-70
2023/06/26 02:02:09;;;;;;;13.82;12.60;;;;;;;21.18;87.46;94760.66;5141148;27;20295;-70
2023/06/26 02:04:37;;;;;;;12.25;11.20;;;;;;;21.18;87.23;94752.09;5141709;27;20657;-71
2023/06/26 02:07:04;;;;;;;13.23;12.02;;;;;;;21.25;86.58;94755.84;5134894;27;20233;-70
2023/06/26 02:09:30;;;;;;;12.23;11.23;;;;;;;21.25;86.28;94756.69;5141622;27;20264;-72
2023/06/26 02:11:57;;;;;;;13.10;12.05;;;;;;;20.92;87.27;94754.16;5142422;27;20227;-71
2023/06/26 02:14:24;;;;;;;14.00;11.98;;;;;;;20.97;87.81;94768.34;5141426;27;20223;-72
2023/06/26 02:16:52;;;;;;;13.27;12.18;;;;;;;21.00;87.81;94762.13;5145446;27;20234;-72
2023/06/26 02:19:21;;;;;;;13.25;11.95;;;;;;;21.02;87.43;94761.06;5143839;27;20264;-71
2023/06/26 02:21:48;;;;;;;13.60;12.35;;;;;;;20.89;88.13;94762.97;5143790;27;20696;-72
2023/06/26 02:24:15;;;;;;;15.43;13.93;;;;;;;20.77;89.01;94769.09;5141438;27;20204;-70
2023/06/26 02:26:42;;;;;;;14.45;13.00;;;;;;;20.91;88.32;94762.84;5143270;27;20230;-71
2023/06/26 02:29:08;;;;;;;15.43;13.95;;;;;;;21.02;87.58;94761.06;5142928;27;20271;-71
2023/06/26 02:31:35;;;;;;;14.35;12.93;;;;;;;21.03;87.51;94765.25;5146029;27;20676;-71
2023/06/26 02:34:03;;;;;;;14.75;13.55;;;;;;;21.05;87.22;94768.53;5141381;27;20276;-69
2023/06/26 02:36:30;;;;;;;18.33;13.75;;;;;;;21.00;87.40;94762.94;5144451;27;20201;-71
2023/06/26 02:38:57;;;;;;;15.13;13.82;;;;;;;21.05;87.26;94776.31;5145505;27;20758;-70
2023/06/26 02:41:23;;;;;;;17.30;15.80;;;;;;;21.11;86.96;94763.84;5139452;27;20231;-70
2023/06/26 02:43:50;;;;;;;17.65;16.00;;;;;;;21.02;87.23;94765.41;5145022;27;20262;-71
2023/06/26 02:46:17;;;;;;;17.50;16.00;;;;;;;20.93;87.64;94766.94;5145756;27;20334;-71
2023/06/26 02:48:43;;;;;;;17.35;15.68;;;;;;;20.86;87.97;94776.13;5142176;27;20209;-68
2023/06/26 02:51:11;;;;;;;17.63;16.13;;;;;;;20.89;87.99;94773.28;5142296;27;20670;-71
2023/06/26 02:53:38;;;;;;;17.88;16.30;;;;;;;20.97;87.72;94767.53;5143994;27;20196;-70
2023/06/26 02:56:05;;;;;;;19.02;17.30;;;;;;;20.79;88.47;94767.19;5143678;27;20200;-71
2023/06/26 02:58:32;;;;;;;17.30;15.60;;;;;;;20.81;88.27;94772.25;5142990;27;20228;-70
2023/06/26 03:00:59;;;;;;;17.83;16.33;;;;;;;20.58;89.24;94764.53;5142430;27;20303;-70
2023/06/26 03:03:25;;;;;;;17.88;16.27;;;;;;;20.75;88.52;94767.56;5142239;27;20188;-72
2023/06/26 03:05:52;;;;;;;18.77;16.83;;;;;;;20.61;89.13;94771.22;5143245;27;20227;-71
2023/06/26 03:08:20;;;;;;;18.23;16.65;;;;;;;20.58;89.40;94768.88;5145516;27;21010;-70
2023/06/26 03:10:47;;;;;;;20.65;17.58;;;;;;;20.66;89.11;94769.09;5143002;27;20227;-71
2023/06/26 03:13:15;;;;;;;20.40;17.23;;;;;;;20.54;89.45;94765.69;5143469;27;20590;-71
2023/06/26 03:15:42;;;;;;;20.00;18.02;;;;;;;20.60;88.88;94774.75;5146355;27;20557;-70
2023/06/26 03:18:10;;;;;;;18.85;16.80;;;;;;;20.61;89.18;94771.22;5148827;27;20737;-72
2023/06/26 03:20:36;;;;;;;18.20;16.60;;;;;;;20.64;88.78;94770.97;5143895;27;20190;-71
2023/06/26 03:23:03;;;;;;;19.88;17.95;;;;;;;20.66;88.59;94772.50;5146987;27;20242;-71
2023/06/26 03:25:32;;;;;;;19.80;18.00;;;;;;;20.75;88.20;94768.41;5148161;27;20274;-71
2023/06/26 03:27:58;;;;;;;19.73;17.92;;;;;;;20.63;88.74;94764.19;5149955;27;20761;-72
2023/06/26 03:30:25;;;;;;;21.20;18.95;;;;;;;20.67;88.42;94771.56;5147412;27;20250;-71
2023/06/26 03:32:52;;;;;;;20.80;17.60;;;;;;;20.55;89.18;94771.69;5150008;27;20238;-72
2023/06/26 03:35:19;;;;;;;19.80;17.95;;;;;;;20.49;89.27;94767.03;5151412;27;20196;-71
2023/06/26 03:37:45;;;;;;;22.13;18.00;;;;;;;20.36;89.74;94780.81;5149134;27;20195;-70
2023/06/26 03:40:12;;;;;;;20.30;18.45;;;;;;;20.30;90.27;94783.03;5148729;27;21214;-69
2023/06/26 03:42:40;;;;;;;20.17;18.27;;;;;;;20.24;90.80;94781.75;5146755;27;20203;-71
2023/06/26 03:45:07;;;;;;;20.00;18.15;;;;;;;20.22;90.64;94775.91;5146239;27;20245;-71
2023/06/26 03:47:34;;;;;;;20.35;18.42;;;;;;;20.27;90.67;94776.38;5148791;27;20200;-71
2023/06/26 03:50:00;;;;;;;20.35;18.45;;;;;;;20.24;90.95;94781.75;5148700;27;20215;-71
2023/06/26 03:52:30;;;;;;;19.27;17.48;;;;;;;20.41;90.09;94772.75;5145702;27;20222;-72
2023/06/26 03:54:57;;;;;;;21.15;19.02;;;;;;;20.40;90.28;94778.03;5146350;27;20280;-70
2023/06/26 03:57:23;;;;;;;19.77;18.08;;;;;;;20.56;89.78;94765.59;5146967;27;20200;-70
2023/06/26 03:59:52;;;;;;;23.52;19.33;;;;;;;20.73;88.71;94767.69;5149851;27;20192;-70
2023/06/26 04:02:19;;;;;;;19.60;17.77;;;;;;;20.82;88.29;94759.22;5149450;27;20211;-70
2023/06/26 04:04:45;;;;;;;19.38;17.58;;;;;;;20.99;87.18;94766.47;5146702;27;20621;-71
2023/06/26 04:07:12;;;;;;;27.73;21.63;;;;;;;20.95;87.44;94769.41;5146716;27;20730;-71
2023/06/26 04:09:39;;;;;;;31.77;25.08;;;;;;;21.05;87.10;94772.88;5145449;27;20258;-71
2023/06/26 04:12:06;;;;;;;19.77;17.65;;;;;;;21.34;85.56;94771.44;5143900;27;20246;-71
2023/06/26 04:14:33;;;;;;;20.38;18.38;;;;;;;21.51;84.77;94777.84;5146348;27;20207;-71
2023/06/26 04:17:03;;;;;;;17.83;16.30;;;;;;;21.69;83.56;94781.50;5144803;27;20195;-71
2023/06/26 04:19:29;;;;;;;18.23;16.50;;;;;;;21.85;82.83;94778.47;5143325;27;20197;-71
2023/06/26 04:21:56;;;;;;;19.27;16.67;;;;;;;22.14;81.01;94786.44;5143844;27;20644;-71
2023/06/26 04:24:23;;;;;;;17.90;16.25;;;;;;;22.34;80.36;94775.25;5146942;27;20219;-71
2023/06/26 04:26:49;;;;;;;19.35;17.40;;;;;;;22.54;79.76;94777.91;5144683;27;20256;-70
2023/06/26 04:29:16;;;;;;;24.45;21.83;;;;;;;22.79;77.77;94782.66;5146485;27;20638;-70
2023/06/26 04:31:46;;;;;;;24.05;21.15;;;;;;;22.79;78.14;94776.66;5145070;27;20203;-72
2023/06/26 04:34:14;;;;;;;17.67;16.02;;;;;;;22.75;78.50;94776.09;5147524;27;20197;-70
2023/06/26 04:36:46;;;;;;;16.40;15.20;;;;;;;22.87;77.78;94779.41;5146961;27;20252;-71
2023/06/26 04:39:14;;;;;;;17.63;16.00;;;;;;;22.92;77.02;94774.66;5145828;27;20199;-71
2023/06/26 04:41:41;;;;;;;33.92;26.23;;;;;;;23.08;76.81;94783.56;5144484;27;20535;-71
2023/06/26 04:44:07;;;;;;;18.80;17.08;;;;;;;23.37;75.04;94782.78;5141831;27;20214;-71
2023/06/26 04:46:34;;;;;;;17.27;15.73;;;;;;;23.39;74.92;94778.28;5146428;27;20303;-71
2023/06/26 04:49:03;;;;;;;16.38;15.07;;;;;;;23.41;75.12;94784.16;5144434;27;20390;-70
2023/06/26 04:51:31;;;;;;;15.88;14.50;;;;;;;23.50;74.92;94783.34;5145507;27;21501;-71
2023/06/26 04:53:57;;;;;;;16.17;14.45;;;;;;;23.64;74.32;94780.34;5144091;27;20199;-71
2023/06/26 04:56:24;;;;;;;16.60;14.95;;;;;;;23.84;73.37;94781.16;5146159;27;20241;-71
2023/06/26 04:58:51;;;;;;;17.58;15.80;;;;;;;23.96;73.01;94789.63;5140506;27;20212;-70
2023/06/26 05:01:17;;;;;;;15.15;13.98;;;;;;;24.03;72.99;94783.72;5144472;27;20741;-72
2023/06/26 05:03:45;;;;;;;15.30;14.00;;;;;;;24.04;72.31;94790.53;5144294;27;20672;-71
2023/06/26 05:06:11;;;;;;;14.30;13.20;;;;;;;23.99;72.30;94789.34;5143655;27;20287;-71
2023/06/26 05:08:39;;;;;;;14.52;13.48;;;;;;;23.96;72.04;94794.81;5141514;27;20636;-72
2023/06/26 05:11:06;;;;;;;15.88;14.48;;;;;;;23.99;72.40;94794.53;5142236;27;20272;-72
2023/06/26 05:13:33;;;;;;;14.73;13.52;;;;;;;24.22;71.55;94800.22;5144954;27;20637;-71
2023/06/26 05:16:00;;;;;;;15.18;13.88;;;;;;;24.53;71.10;94793.03;5145404;27;20651;-69
2023/06/26 05:18:26;;;;;;;16.73;13.95;;;;;;;24.85;68.94;94798.66;5145383;27;20275;-72
2023/06/26 05:20:53;;;;;;;15.30;13.90;;;;;;;24.94;68.21;94803.00;5139857;27;20713;-71
2023/06/26 05:23:21;;;;;;;14.48;13.27;;;;;;;24.88;68.50;94800.97;5145209;27;20219;-68
2023/06/26 05:25:51;;;;;;;13.93;12.75;;;;;;;24.77;67.97;94801.13;5143749;27;20195;-73
2023/06/26 05:28:18;;;;;;;15.32;14.23;;;;;;;24.67;68.87;94805.56;5145845;27;20586;-72
2023/06/26 05:30:45;;;;;;;15.32;13.93;;;;;;;24.70;68.42;94808.72;5143812;27;20247;-71
2023/06/26 05:33:13;;;;;;;14.13;13.00;;;;;;;24.56;69.44;94803.97;5147208;27;20203;-70
2023/06/26 05:35:40;;;;;;;17.23;15.85;;;;;;;24.51;70.02;94807.94;5145033;27;20291;-71
2023/06/26 05:38:07;;;;;;;16.45;14.95;;;;;;;24.46;69.53;94812.78;5148715;27;20231;-71
2023/06/26 05:40:34;;;;;;;15.25;13.45;;;;;;;24.30;69.50;94814.16;5145448;27;20234;-69
2023/06/26 05:43:03;;;;;;;15.27;13.98;;;;;;;24.18;70.17;94809.25;5145485;27;20199;-69
2023/06/26 05:45:30;;;;;;;13.50;12.32;;;;;;;24.09;70.28;94808.28;5143055;27;20643;-71
2023/06/26 05:47:56;;;;;;;14.48;13.27;;;;;;;24.20;70.44;94808.16;5145822;27;20230;-71
2023/06/26 05:50:23;;;;;;;14.48;13.25;;;;;;;25.02;68.16;94805.69;5143174;27;20668;-70
2023/06/26 05:52:51;;;;;;;13.48;12.38;;;;;;;26.99;60.96;94807.94;5145177;27;20272;-71
2023/06/26 05:55:18;;;;;;;13.50;12.18;;;;;;;28.61;55.58;94803.84;5144093;27;20259;-71
2023/06/26 05:57:46;;;;;;;11.48;10.43;;;;;;;29.01;53.81;94803.75;5142659;27;20276;-71
2023/06/26 06:00:15;;;;;;;11.50;10.52;;;;;;;29.31;52.65;94806.53;5141353;27;20298;-69
2023/06/26 06:02:43;;;;;;;12.57;11.10;;;;;;;29.57;52.42;94812.31;5145061;27;20353;-71
2023/06/26 06:05:10;;;;;;;11.95;11.13;;;;;;;29.36;52.51;94805.03;5143338;27;20223;-72
2023/06/26 06:07:37;;;;;;;15.25;11.15;;;;;;;28.89;54.05;94807.72;5145156;27;20219;-71
2023/06/26 06:10:05;;;;;;;11.60;10.90;;;;;;;29.22;53.68;94811.00;5143739;27;20322;-71
2023/06/26 06:12:32;;;;;;;12.43;11.57;;;;;;;30.45;51.39;94817.03;5143772;27;20255;-71
2023/06/26 06:14:58;;;;;;;12.43;11.45;;;;;;;31.64;47.80;94808.94;5144943;27;20271;-71
2023/06/26 06:17:26;;;;;;;10.93;10.10;;;;;;;32.83;44.34;94804.72;5140781;27;20625;-71
2023/06/26 06:19:53;;;;;;;9.82;8.75;;;;;;;33.61;42.07;94803.44;5144791;27;20580;-69
2023/06/26 06:22:20;;;;;;;11.20;10.32;;;;;;;35.59;38.35;94791.88;5144251;27;20244;-72
2023/06/26 06:24:49;;;;;;;11.27;10.50;;;;;;;37.06;35.24;94805.38;5143248;27;20251;-73
2023/06/26 06:27:16;;;;;;;12.10;11.05;;;;;;;37.05;34.92;94797.63;5143063;27;20707;-71
2023/06/26 06:29:43;;;;;;;10.75;9.65;;;;;;;37.20;34.79;94789.31;5142354;27;20203;-72
2023/06/26 06:32:09;;;;;;;11.07;10.27;;;;;;;37.94;33.46;94796.09;5143291;27;20272;-71
2023/06/26 06:34:37;;;;;;;9.90;9.18;;;;;;;40.12;29.96;94777.66;5145125;27;20228;-72
2023/06/26 06:37:05;;;;;;;10.52;9.48;;;;;;;42.37;26.84;94780.22;5142763;27;20620;-69
2023/06/26 06:39:31;;;;;;;15.00;12.48;;;;;;;43.99;24.79;94782.09;5143869;27;20588;-73
2023/06/26 06:41:58;;;;;;;9.32;8.70;;;;;;;45.29;23.03;94778.75;5141428;27;20200;-73
2023/06/26 06:44:25;;;;;;;10.65;9.85;;;;;;;46.30;21.90;94778.16;5145194;27;20223;-69
2023/06/26 06:46:51;;;;;;;10.60;9.27;;;;;;;47.05;20.97;94783.91;5140675;27;20712;-71
2023/06/26 06:49:18;;;;;;;7.95;7.43;;;;;;;47.54;20.06;94774.72;5141100;27;20231;-72
2023/06/26 06:51:46;;;;;;;7.45;7.03;;;;;;;47.83;19.85;94776.50;5142328;27;20298;-71
2023/06/26 06:54:13;;;;;;;11.43;7.10;;;;;;;46.59;20.77;94778.16;5148700;27;20271;-72
2023/06/26 06:56:40;;;;;;;7.43;7.03;;;;;;;45.62;21.64;94772.69;5145277;27;20202;-70
2023/06/26 06:59:06;;;;;;;7.75;6.97;;;;;;;44.60;22.84;94769.50;5145476;27;20261;-71
2023/06/26 07:01:33;;;;;;;7.63;6.88;;;;;;;43.25;24.17;94777.88;5143446;27;20192;-71
2023/06/26 07:04:00;;;;;;;7.03;6.53;;;;;;;41.37;25.96;94770.94;5147528;27;20219;-70
2023/06/26 07:06:27;;;;;;;8.00;7.60;;;;;;;40.25;27.56;94765.91;5143695;27;20709;-71
2023/06/26 07:08:55;;;;;;;9.20;7.40;;;;;;;38.29;30.15;94773.13;5148744;27;20231;-71
2023/06/26 07:11:21;;;;;;;6.82;6.53;;;;;;;36.09;32.84;94772.44;5143908;27;20259;-72
2023/06/26 07:13:48;;;;;;;7.70;7.30;;;;;;;35.66;34.33;94771.47;5148873;27;20712;-69
2023/06/26 07:16:15;;;;;;;7.18;6.72;;;;;;;37.33;32.56;94774.09;5144854;27;20247;-72
2023/06/26 07:18:41;;;;;;;7.93;7.32;;;;;;;40.21;28.31;94762.13;5148848;27;20245;-70
2023/06/26 07:21:09;;;;;;;6.75;6.18;;;;;;;42.80;25.16;94767.72;5145335;27;20291;-70
2023/06/26 07:23:35;;;;;;;7.00;6.40;;;;;;;45.00;22.06;94765.97;5147794;27;20204;-71
2023/06/26 07:26:03;;;;;;;6.28;5.88;;;;;;;45.57;21.11;94769.22;5144099;27;20257;-71
2023/06/26 07:28:30;;;;;;;6.03;5.57;;;;;;;46.49;20.67;94764.03;5144361;27;20236;-73
2023/06/26 07:30:57;;;;;;;5.95;5.60;;;;;;;47.82;19.07;94759.53;5143765;27;20339;-69
2023/06/26 07:33:23;;;;;;;9.23;8.60;;;;;;;49.00;17.74;94762.69;5142699;27;20272;-69
2023/06/26 07:35:50;;;;;;;9.52;8.98;;;;;;;49.82;17.37;94761.00;5145826;27;20199;-71
2023/06/26 07:38:17;;;;;;;6.88;6.45;;;;;;;50.74;16.24;94760.41;5144451;27;21381;-72
2023/06/26 07:40:43;;;;;;;5.80;5.50;;;;;;;50.74;16.18;94765.81;5147052;27;20665;-72
2023/06/26 07:43:11;;;;;;;6.47;5.93;;;;;;;50.69;16.29;94768.69;5144373;27;20207;-69
2023/06/26 07:45:38;;;;;;;5.50;5.20;;;;;;;50.97;16.31;94761.19;5144976;27;20683;-71
2023/06/26 07:48:06;;;;;;;6.13;5.03;;;;;;;51.41;16.05;94762.91;5147300;27;20203;-71
2023/06/26 07:50:33;;;;;;;6.57;6.13;;;;;;;50.49;16.68;94766.47;5145959;27;20669;-72
2023/06/26 07:53:00;;;;;;;5.75;5.35;;;;;;;50.18;16.83;94761.81;5145912;27;20653;-70
2023/06/26 07:55:27;;;;;;;6.28;5.78;;;;;;;50.38;16.79;94764.03;5144336;27;20554;-71
2023/06/26 07:57:55;;;;;;;6.07;5.78;;;;;;;51.15;16.50;94764.72;5148179;27;20581;-71
2023/06/26 08:00:23;;;;;;;5.72;5.50;;;;;;;50.52;16.98;94760.44;5143901;27;20616;-72
2023/06/26 08:02:50;;;;;;;5.82;5.53;;;;;;;47.42;18.47;94766.28;5146487;27;20195;-69
2023/06/26 08:05:16;;;;;;;51.28;46.20;;;;;;;42.61;23.50;94769.97;5145529;27;20270;-69
2023/06/26 08:07:43;;;;;;;12.30;11.40;;;;;;;38.26;29.01;94778.91;5146520;27;20361;-71
2023/06/26 08:10:10;;;;;;;8.27;7.38;;;;;;;36.79;31.58;94766.94;5145281;27;20195;-70
2023/06/26 08:12:40;;;;;;;11.15;9.75;;;;;;;39.40;28.15;94763.31;5147388;27;20261;-70
2023/06/26 08:15:07;;;;;;;7.00;6.60;;;;;;;40.10;26.78;94757.66;5145007;27;20192;-71
2023/06/26 08:17:35;;;;;;;7.00;6.40;;;;;;;39.76;27.23;94762.94;5148139;27;20231;-69
2023/06/26 08:20:02;;;;;;;6.72;6.30;;;;;;;39.84;27.27;94761.75;5144114;27;20675;-71
2023/06/26 08:22:29;;;;;;;7.15;6.70;;;;;;;40.87;25.99;94763.13;5144359;27;20196;-69
2023/06/26 08:24:55;;;;;;;6.03;5.47;;;;;;;43.40;23.10;94763.72;5145977;27;20718;-69
2023/06/26 08:27:22;;;;;;;5.93;5.63;;;;;;;45.56;20.86;94756.88;5142582;27;20207;-70
2023/06/26 08:29:49;;;;;;;6.38;5.85;;;;;;;47.40;18.47;94763.06;5146775;27;20646;-70
2023/06/26 08:32:16;;;;;;;8.35;5.20;;;;;;;48.53;17.93;94763.81;5146131;27;20227;-69
2023/06/26 08:34:44;;;;;;;6.35;5.60;;;;;;;48.54;17.92;94764.63;5146103;27;20199;-70
2023/06/26 08:37:10;;;;;;;5.35;5.03;;;;;;;48.70;17.58;94764.06;5145362;27;20196;-71
2023/06/26 08:39:37;;;;;;;5.93;5.55;;;;;;;48.82;17.15;94760.88;5147389;27;20284;-71
2023/06/26 08:42:04;;;;;;;5.85;5.43;;;;;;;49.16;17.32;94762.41;5144937;27;20234;-70
2023/06/26 08:44:31;;;;;;;5.40;5.07;;;;;;;46.31;19.40;94763.66;5147841;27;20207;-72
2023/06/26 08:47:00;;;;;;;5.75;5.38;;;;;;;42.97;22.31;94760.34;5145717;27;20220;-69
2023/06/26 08:49:35;;;;;;;5.20;4.80;;;;;;;42.53;23.05;94767.00;5147040;27;20201;-70
2023/06/26 08:52:11;;;;;;;5.05;4.82;;;;;;;43.04;22.18;94760.91;5142586;27;20230;-70
2023/06/26 08:54:46;;;;;;;5.45;5.07;;;;;;;41.30;24.55;94769.56;5145313;27;20203;-70
2023/06/26 08:57:15;;;;;;;5.32;5.03;;;;;;;42.04;23.43;94767.16;5144164;27;20255;-69
2023/06/26 08:59:42;;;;;;;6.28;5.55;;;;;;;44.26;21.37;94765.78;5145892;27;20200;-68
2023/06/26 09:02:09;;;;;;;5.40;5.00;;;;;;;43.85;21.70;94759.56;5143262;27;20284;-71
2023/06/26 09:04:36;;;;;;;5.35;5.05;;;;;;;41.35;23.91;94766.91;5145436;27;20239;-69
2023/06/26 09:07:05;;;;;;;4.85;4.57;;;;;;;39.81;25.81;94764.09;5144419;27;20286;-69
2023/06/26 09:09:32;;;;;;;5.35;4.55;;;;;;;41.69;24.38;94759.59;5147215;27;20236;-69
2023/06/26 09:11:58;;;;;;;5.68;4.97;;;;;;;44.06;21.79;94755.84;5144511;27;20240;-69
2023/06/26 09:14:25;;;;;;;5.30;5.00;;;;;;;45.77;20.12;94741.47;5146455;27;20227;-71
2023/06/26 09:16:52;;;;;;;4.90;4.60;;;;;;;44.34;20.99;94746.47;5147467;27;20200;-70
2023/06/26 09:19:19;;;;;;;4.25;4.05;;;;;;;41.09;24.32;94755.94;5147133;27;20274;-71
2023/06/26 09:21:46;;;;;;;5.18;4.78;;;;;;;37.90;27.71;94753.31;5145602;27;20249;-69
2023/06/26 09:24:14;;;;;;;5.32;4.88;;;;;;;35.54;31.83;94752.84;5146192;27;20234;-69
2023/06/26 09:26:41;;;;;;;7.35;5.07;;;;;;;34.35;33.67;94753.22;5147848;27;20267;-70
2023/06/26 09:29:08;;;;;;;5.50;5.18;;;;;;;35.32;32.22;94759.47;5146625;27;20188;-70
2023/06/26 09:31:36;;;;;;;5.63;5.32;;;;;;;37.47;29.57;94758.81;5144913;27;20223;-70
2023/06/26 09:34:03;;;;;;;5.35;4.95;;;;;;;39.51;26.45;94743.88;5145863;27;20295;-71
2023/06/26 09:36:32;;;;;;;5.32;4.93;;;;;;;39.17;26.66;94752.75;5146126;27;20196;-69
2023/06/26 09:39:00;;;;;;;5.55;5.25;;;;;;;37.22;29.01;94758.13;5145812;27;20215;-69
2023/06/26 09:41:28;;;;;;;6.55;5.18;;;;;;;35.26;32.55;94752.38;5144871;27;20268;-68
2023/06/26 09:43:55;;;;;;;7.38;5.15;;;;;;;33.45;35.09;94757.16;5143508;27;20204;-69
2023/06/26 09:46:26;;;;;;;5.50;5.10;;;;;;;32.22;37.30;94754.50;5147212;27;20654;-70
2023/06/26 09:48:59;;;;;;;5.68;5.18;;;;;;;31.89;38.29;94753.41;5143614;27;20192;-68
2023/06/26 09:51:26;;;;;;;5.40;5.10;;;;;;;32.64;37.46;94750.13;5147561;27;20261;-69
2023/06/26 09:53:53;;;;;;;6.35;5.85;;;;;;;33.16;35.83;94751.41;5142645;27;20195;-71
2023/06/26 09:56:19;;;;;;;5.50;5.20;;;;;;;32.86;36.25;94761.41;5144275;27;20691;-72
2023/06/26 09:58:48;;;;;;;5.82;5.30;;;;;;;32.21;36.94;94762.56;5147345;27;20199;-74
2023/06/26 10:01:15;;;;;;;6.20;5.72;;;;;;;32.16;37.44;94757.06;5149246;27;20192;-68
2023/06/26 10:03:42;;;;;;;5.60;5.30;;;;;;;32.23;37.30;94756.13;5149757;27;20651;-72
2023/06/26 10:06:10;;;;;;;6.13;5.50;;;;;;;32.26;37.08;94755.75;5148293;27;20251;-73
2023/06/26 10:08:38;;;;;;;5.55;5.15;;;;;;;32.20;37.50;94750.41;5149697;27;20684;-71
2023/06/26 10:11:05;;;;;;;5.63;5.18;;;;;;;32.04;37.69;94751.50;5144469;27;20252;-71
2023/06/26 10:13:37;;;;;;;6.30;5.65;;;;;;;31.54;38.78;94749.81;5142619;27;20234;-73
2023/06/26 10:16:08;;;;;;;6.03;5.50;;;;;;;31.23;39.22;94757.97;5145388;27;20204;-71
2023/06/26 10:18:39;;;;;;;5.75;5.25;;;;;;;30.94;39.77;94754.38;5144048;27;20288;-72
2023/06/26 10:21:09;;;;;;;6.72;6.13;;;;;;;30.68;40.31;94759.31;5143531;27;20260;-73
2023/06/26 10:23:37;;;;;;;8.05;5.22;;;;;;;30.11;41.44;94763.31;5147062;27;20256;-73
2023/06/26 10:26:04;;;;;;;6.18;5.78;;;;;;;29.57;42.20;94770.41;5146200;27;20219;-71
2023/06/26 10:28:34;;;;;;;6.20;5.80;;;;;;;29.17;42.96;94762.78;5147649;27;20192;-69
2023/06/26 10:31:02;;;;;;;7.72;5.72;;;;;;;28.75;43.63;94758.69;5148893;27;20196;-72
2023/06/26 10:33:31;;;;;;;6.05;5.70;;;;;;;28.33;44.95;94764.22;5148225;27;20212;-72
2023/06/26 10:36:14;;;;;;;6.45;5.95;;;;;;;28.05;45.68;94758.50;5148491;27;20204;-72
2023/06/26 10:38:51;;;;;;;7.05;6.45;;;;;;;27.98;46.32;94760.16;5148734;27;20222;-72
2023/06/26 10:41:22;;;;;;;6.60;6.05;;;;;;;28.05;46.30;94761.13;5148450;27;20648;-72
2023/06/26 10:44:06;;;;;;;7.40;6.70;;;;;;;28.25;46.16;94765.03;5146322;27;20200;-72
2023/06/26 10:46:34;;;;;;;6.53;6.00;;;;;;;28.56;45.70;94753.88;5151233;27;20223;-72
2023/06/26 10:49:03;;;;;;;7.07;6.50;;;;;;;28.68;45.00;94763.81;5146503;27;20665;-71
2023/06/26 10:51:30;;;;;;;6.47;5.95;;;;;;;28.64;44.76;94746.00;5150428;27;20216;-72
2023/06/26 10:53:57;;;;;;;7.03;5.65;;;;;;;28.71;45.31;94752.97;5143811;27;20276;-72
2023/06/26 10:56:42;;;;;;;6.38;5.97;;;;;;;28.79;45.42;94752.13;5148126;27;20267;-72
2023/06/26 10:59:15;;;;;;;6.72;6.15;;;;;;;28.96;45.29;94753.72;5146003;27;20290;-72
2023/06/26 11:01:43;;;;;;;5.93;5.53;;;;;;;28.99;44.88;94750.75;5148084;27;20238;-72
2023/06/26 11:04:11;;;;;;;6.82;6.30;;;;;;;28.99;44.45;94745.53;5145786;27;20699;-71
2023/06/26 11:06:39;;;;;;;5.93;5.43;;;;;;;28.91;44.47;94753.44;5148526;27;20224;-70
2023/06/26 11:09:14;;;;;;;6.05;5.65;;;;;;;28.84;44.49;94749.88;5148456;27;20201;-72
2023/06/26 11:11:59;;;;;;;5.85;5.45;;;;;;;28.62;44.87;94740.13;5148740;27;20303;-72
2023/06/26 11:14:27;;;;;;;6.32;5.82;;;;;;;28.55;45.16;94741.78;5146443;27;20271;-74
2023/06/26 11:16:57;;;;;;;9.88;6.22;;;;;;;28.56;44.99;94749.44;5150467;27;20244;-72
2023/06/26 11:19:27;;;;;;;6.85;6.40;;;;;;;28.48;46.01;94751.25;5147887;27;20279;-71
2023/06/26 11:21:59;;;;;;;7.10;6.40;;;;;;;28.34;46.26;94748.38;5151349;27;20202;-73
2023/06/26 11:24:27;;;;;;;6.80;6.30;;;;;;;28.16;45.79;94745.13;5146796;27;20287;-72
2023/06/26 11:26:53;;;;;;;6.05;5.75;;;;;;;27.97;46.61;94740.22;5150353;27;20268;-71